Time;durP1;ratioP1;P1;durP2;ratioP2;P2;SDS_P1;SDS_P2;PMS_P1;PMS_P2;Temp;Humidity;BMP_temperature;BMP_pressure;BME280_temperature;BME280_humidity;BME280_pressure;Samples;Min_cycle;Max_cycle;Signal;HPM_P1;HPM_P2
2023/03/25 00:01:15;;;;;;;14.65;2.17;;;;;;;7.53;100.00;98389.94;4929986;28;20034;-80
2023/03/25 00:03:45;;;;;;;12.43;2.53;;;;;;;7.49;100.00;98398.34;4965505;28;20041;-79
2023/03/25 00:06:13;;;;;;;21.17;2.65;;;;;;;7.50;100.00;98400.00;4936818;28;20391;-79
2023/03/25 00:08:41;;;;;;;16.80;2.25;;;;;;;7.47;100.00;98414.31;4949930;28;20031;-80
2023/03/25 00:11:11;;;;;;;11.82;2.05;;;;;;;7.52;100.00;98411.16;4949449;28;20042;-80
2023/03/25 00:13:41;;;;;;;12.82;1.85;;;;;;;7.51;100.00;98428.75;4947827;29;20043;-80
2023/03/25 00:16:10;;;;;;;18.27;1.92;;;;;;;7.50;100.00;98427.09;4965811;28;20042;-80
2023/03/25 00:18:39;;;;;;;13.55;2.95;;;;;;;7.52;100.00;98429.56;4970125;28;20387;-79
2023/03/25 00:21:11;;;;;;;15.18;1.98;;;;;;;7.48;100.00;98433.53;4946450;28;20031;-80
2023/03/25 00:23:42;;;;;;;17.15;1.75;;;;;;;7.48;100.00;98425.66;4953894;28;20034;-79
2023/03/25 00:26:11;;;;;;;18.00;1.80;;;;;;;7.48;100.00;98444.88;4933133;28;20065;-80
2023/03/25 00:28:39;;;;;;;13.98;1.67;;;;;;;7.44;100.00;98440.94;4962005;28;20041;-79
2023/03/25 00:31:11;;;;;;;8.35;1.92;;;;;;;7.44;100.00;98457.53;4929677;28;20031;-79
2023/03/25 00:33:40;;;;;;;11.27;1.55;;;;;;;7.38;100.00;98460.03;4960884;28;20030;-80
2023/03/25 00:36:12;;;;;;;10.98;1.55;;;;;;;7.42;100.00;98466.59;4937839;28;20035;-79
2023/03/25 00:38:41;;;;;;;8.63;2.13;;;;;;;7.39;100.00;98473.00;4962729;28;20059;-79
2023/03/25 00:41:10;;;;;;;9.65;1.90;;;;;;;7.45;100.00;98474.94;4960645;28;20039;-80
2023/03/25 00:43:38;;;;;;;14.13;1.80;;;;;;;7.43;100.00;98484.00;4957708;28;20567;-79
2023/03/25 00:46:06;;;;;;;9.52;1.58;;;;;;;7.44;100.00;98488.25;4948983;28;20081;-80
2023/03/25 00:48:34;;;;;;;7.50;1.00;;;;;;;7.42;100.00;98472.66;4951193;28;20412;-80
2023/03/25 00:51:06;;;;;;;10.10;1.08;;;;;;;7.44;100.00;98483.00;4942576;28;20104;-80
2023/03/25 00:53:35;;;;;;;11.30;1.42;;;;;;;7.42;100.00;98488.44;4969000;28;20030;-80
2023/03/25 00:56:03;;;;;;;14.77;1.58;;;;;;;7.41;100.00;98493.84;4942383;29;20031;-80
2023/03/25 00:58:31;;;;;;;11.77;1.55;;;;;;;7.37;100.00;98497.81;4920915;29;20134;-79
2023/03/25 01:01:01;;;;;;;12.82;1.20;;;;;;;7.39;100.00;98504.53;4929153;29;20039;-80
2023/03/25 01:03:31;;;;;;;15.00;1.95;;;;;;;7.41;100.00;98505.19;4952907;28;20039;-79
2023/03/25 01:06:02;;;;;;;8.70;1.50;;;;;;;7.41;100.00;98507.81;4948205;29;20035;-80
2023/03/25 01:08:31;;;;;;;10.15;1.27;;;;;;;7.41;100.00;98514.88;4918909;29;20031;-80
2023/03/25 01:11:00;;;;;;;8.95;1.20;;;;;;;7.42;100.00;98524.44;4943299;29;20035;-80
2023/03/25 01:13:28;;;;;;;11.10;1.58;;;;;;;7.42;100.00;98527.06;4951513;28;20043;-80
2023/03/25 01:15:55;;;;;;;7.78;1.50;;;;;;;7.43;100.00;98529.50;4932007;29;20038;-79
2023/03/25 01:18:23;;;;;;;11.75;1.95;;;;;;;7.41;100.00;98530.66;4919058;29;20035;-80
2023/03/25 01:20:52;;;;;;;13.02;1.77;;;;;;;7.43;100.00;98528.69;4949134;28;20031;-80
2023/03/25 01:23:20;;;;;;;7.78;1.20;;;;;;;7.40;100.00;98529.03;4942091;29;20035;-79
2023/03/25 01:25:50;;;;;;;8.55;1.20;;;;;;;7.41;100.00;98541.16;4944355;28;20035;-80
2023/03/25 01:28:20;;;;;;;7.25;1.42;;;;;;;7.38;100.00;98538.88;4951575;28;20043;-79
2023/03/25 01:30:49;;;;;;;7.90;1.10;;;;;;;7.37;100.00;98548.59;4934792;28;20059;-79
2023/03/25 01:33:20;;;;;;;6.82;1.15;;;;;;;7.34;100.00;98553.38;4952187;28;20102;-79
2023/03/25 01:35:49;;;;;;;7.80;0.80;;;;;;;7.35;100.00;98568.97;4913405;28;20118;-79
2023/03/25 01:38:19;;;;;;;9.88;1.73;;;;;;;7.34;100.00;98566.50;4929892;29;20472;-80
2023/03/25 01:40:46;;;;;;;6.50;0.90;;;;;;;7.31;100.00;98568.47;4949553;28;20030;-80
2023/03/25 01:43:17;;;;;;;7.13;0.93;;;;;;;7.32;100.00;98575.41;4936734;29;20050;-80
2023/03/25 01:45:47;;;;;;;6.90;0.77;;;;;;;7.34;100.00;98574.41;4946185;28;20031;-80
2023/03/25 01:48:36;;;;;;;6.43;1.17;;;;;;;7.35;100.00;98589.16;4931089;29;20065;-80
2023/03/25 01:51:14;;;;;;;5.13;0.80;;;;;;;7.32;100.00;98593.78;4945698;28;20035;-79
2023/03/25 01:53:45;;;;;;;8.77;1.00;;;;;;;7.30;100.00;98601.00;4944283;28;20031;-80
2023/03/25 01:56:20;;;;;;;7.82;0.82;;;;;;;7.29;100.00;98615.13;4953463;28;20059;-80
2023/03/25 01:58:52;;;;;;;9.48;1.10;;;;;;;7.29;100.00;98616.94;4941603;28;20051;-80
2023/03/25 02:01:25;;;;;;;7.32;0.73;;;;;;;7.26;100.00;98618.09;4904584;28;20122;-80
2023/03/25 02:04:01;;;;;;;8.38;0.85;;;;;;;7.26;100.00;98628.59;4938614;28;20399;-80
2023/03/25 02:06:42;;;;;;;3.78;0.40;;;;;;;7.24;100.00;98629.75;4931614;28;20046;-80
2023/03/25 02:09:16;;;;;;;4.60;0.75;;;;;;;7.22;100.00;98629.09;4951803;28;20031;-80
2023/03/25 02:11:46;;;;;;;7.95;0.77;;;;;;;7.20;100.00;98629.28;4952057;28;20039;-80
2023/03/25 02:14:22;;;;;;;7.35;0.70;;;;;;;7.18;100.00;98637.31;4956217;28;20125;-80
2023/03/25 02:17:17;;;;;;;4.88;0.40;;;;;;;7.16;100.00;98630.59;4954229;28;20035;-79
2023/03/25 02:20:25;;;;;;;2.80;0.70;;;;;;;7.12;100.00;98643.25;4940934;28;20066;-80
2023/03/25 02:22:54;;;;;;;6.07;0.70;;;;;;;7.05;100.00;98639.66;4942654;28;20043;-80
2023/03/25 02:25:49;;;;;;;4.65;1.00;;;;;;;7.03;100.00;98636.38;4962765;28;20551;-80
2023/03/25 02:28:28;;;;;;;5.40;0.70;;;;;;;6.97;100.00;98634.41;4953143;28;20034;-79
2023/03/25 02:31:16;;;;;;;5.38;0.50;;;;;;;6.93;100.00;98647.88;4952394;28;20360;-79
2023/03/25 02:34:22;;;;;;;2.85;0.60;;;;;;;6.90;100.00;98653.44;4939143;29;20039;-79
2023/03/25 02:37:08;;;;;;;4.50;0.68;;;;;;;6.85;100.00;98654.94;4935085;28;20042;-80
2023/03/25 02:39:51;;;;;;;11.18;2.47;;;;;;;6.88;100.00;98658.03;4943201;28;20528;-79
2023/03/25 02:42:44;;;;;;;5.13;0.60;;;;;;;6.91;100.00;98664.78;4960229;28;20058;-80
2023/03/25 02:45:39;;;;;;;3.60;0.60;;;;;;;6.93;100.00;98671.50;4944613;28;20039;-80
2023/03/25 02:48:15;;;;;;;6.60;0.70;;;;;;;6.96;100.00;98680.84;4942204;28;20035;-80
2023/03/25 02:50:56;;;;;;;7.65;0.70;;;;;;;7.03;100.00;98678.41;4957484;28;20041;-80
2023/03/25 02:53:29;;;;;;;8.00;1.02;;;;;;;7.01;100.00;98680.34;4955858;28;20031;-79
2023/03/25 02:56:08;;;;;;;16.98;1.90;;;;;;;7.01;100.00;98685.63;4934622;28;20042;-80
2023/03/25 02:58:40;;;;;;;13.75;1.70;;;;;;;7.03;100.00;98688.91;4944847;28;20054;-79
2023/03/25 03:01:13;;;;;;;7.30;1.13;;;;;;;7.00;100.00;98690.06;4947302;28;20062;-80
2023/03/25 03:03:42;;;;;;;5.50;0.80;;;;;;;7.00;100.00;98697.94;4945645;29;20038;-80
2023/03/25 03:06:17;;;;;;;15.52;2.15;;;;;;;7.00;100.00;98697.13;4950838;29;20110;-80
2023/03/25 03:08:50;;;;;;;7.97;1.25;;;;;;;6.98;100.00;98705.16;4935073;28;20118;-80
2023/03/25 03:11:44;;;;;;;7.93;1.00;;;;;;;6.98;100.00;98704.34;4941092;28;20507;-79
2023/03/25 03:14:44;;;;;;;4.38;0.93;;;;;;;6.94;100.00;98704.66;4973015;28;20114;-80
2023/03/25 03:17:33;;;;;;;9.95;0.80;;;;;;;6.92;100.00;98713.69;4956252;28;20039;-79
2023/03/25 03:20:41;;;;;;;8.65;0.75;;;;;;;6.89;100.00;98720.13;4960812;28;20038;-80
2023/03/25 03:23:40;;;;;;;6.63;0.90;;;;;;;6.92;100.00;98726.84;4930183;29;20562;-80
2023/03/25 03:26:15;;;;;;;6.43;0.93;;;;;;;6.94;100.00;98719.63;4919371;29;20032;-80
2023/03/25 03:28:49;;;;;;;13.15;1.58;;;;;;;6.90;100.00;98729.63;4936031;28;20046;-80
2023/03/25 03:31:27;;;;;;;9.35;1.25;;;;;;;6.95;100.00;98726.50;4973506;28;20042;-79
2023/03/25 03:34:04;;;;;;;13.77;1.50;;;;;;;6.94;100.00;98738.00;4954936;28;20030;-80
2023/03/25 03:36:40;;;;;;;10.85;1.20;;;;;;;6.95;100.00;98731.75;4955335;28;20444;-80
2023/03/25 03:39:18;;;;;;;10.70;1.27;;;;;;;6.98;100.00;98748.97;4953640;28;20098;-80
2023/03/25 03:41:53;;;;;;;9.07;1.52;;;;;;;6.97;100.00;98742.09;4970094;28;20110;-80
2023/03/25 03:44:31;;;;;;;14.07;1.63;;;;;;;6.99;100.00;98738.31;4940604;28;20038;-79
2023/03/25 03:47:12;;;;;;;12.45;1.45;;;;;;;7.00;100.00;98750.47;4956115;28;20872;-79
2023/03/25 03:50:08;;;;;;;7.78;1.23;;;;;;;7.02;100.00;98764.28;4954191;28;20089;-80
2023/03/25 03:52:46;;;;;;;16.13;1.42;;;;;;;7.00;100.00;98760.16;4945199;28;20052;-80
2023/03/25 03:55:22;;;;;;;11.88;1.60;;;;;;;7.03;100.00;98763.28;4960312;28;20035;-79
2023/03/25 03:57:56;;;;;;;;;;;;;;;7.02;100.00;98771.34;4954065;28;20051;-80
2023/03/25 04:00:32;;;;;;;11.35;1.75;;;;;;;7.06;100.00;98768.22;4960516;28;19918;-80
2023/03/25 04:03:16;;;;;;;13.75;1.65;;;;;;;7.14;100.00;98771.81;4966554;28;20031;-80
2023/03/25 04:05:58;;;;;;;20.17;1.58;;;;;;;7.16;100.00;98768.06;4967200;28;20087;-80
2023/03/25 04:08:37;;;;;;;14.88;1.92;;;;;;;7.19;100.00;98766.91;4951250;29;20030;-79
2023/03/25 04:11:15;;;;;;;12.15;2.30;;;;;;;7.21;100.00;98772.84;4963002;28;20102;-80
2023/03/25 04:13:50;;;;;;;9.75;0.98;;;;;;;7.22;100.00;98758.69;4948726;28;20606;-80
2023/03/25 04:16:20;;;;;;;9.02;1.10;;;;;;;7.23;100.00;98776.09;4927740;28;20038;-80
2023/03/25 04:18:52;;;;;;;13.20;1.60;;;;;;;7.23;100.00;98773.47;4953231;28;20071;-80
2023/03/25 04:21:22;;;;;;;10.85;1.52;;;;;;;7.23;100.00;98776.09;4952631;28;20035;-79
2023/03/25 04:23:52;;;;;;;10.57;1.77;;;;;;;7.22;100.00;98787.59;4952750;28;20050;-80
2023/03/25 04:26:21;;;;;;;9.63;1.27;;;;;;;7.22;100.00;98789.41;4955264;28;20038;-80
2023/03/25 04:28:51;;;;;;;9.98;1.60;;;;;;;7.25;100.00;98802.22;4951806;28;20054;-80
2023/03/25 04:31:20;;;;;;;7.93;0.98;;;;;;;7.29;100.00;98806.97;4954983;28;20027;-80
2023/03/25 04:33:49;;;;;;;10.52;1.27;;;;;;;7.30;100.00;98800.75;4969691;28;20524;-80
2023/03/25 04:36:19;;;;;;;11.95;2.17;;;;;;;7.35;100.00;98810.78;4967023;28;20031;-79
2023/03/25 04:38:51;;;;;;;10.13;1.40;;;;;;;7.38;100.00;98810.44;4968598;28;20031;-80
2023/03/25 04:41:25;;;;;;;11.82;2.03;;;;;;;7.44;100.00;98819.47;4934810;28;20400;-80
2023/03/25 04:43:54;;;;;;;9.63;1.50;;;;;;;7.44;100.00;98829.97;4938343;28;20058;-80
2023/03/25 04:46:23;;;;;;;10.13;1.00;;;;;;;7.48;100.00;98825.22;4954382;28;20112;-80
2023/03/25 04:48:52;;;;;;;9.68;1.58;;;;;;;7.44;100.00;98822.09;4935335;28;20436;-80
2023/03/25 04:51:22;;;;;;;11.23;1.10;;;;;;;7.48;100.00;98830.50;4950581;28;20419;-79
2023/03/25 04:53:52;;;;;;;9.75;1.25;;;;;;;7.47;100.00;98829.66;4967041;28;20042;-80
2023/03/25 04:56:22;;;;;;;7.95;1.40;;;;;;;7.47;100.00;98828.84;4966491;28;20031;-79
2023/03/25 04:58:52;;;;;;;6.40;1.05;;;;;;;7.44;100.00;98836.06;4968422;28;20051;-80
2023/03/25 05:01:29;;;;;;;8.90;0.70;;;;;;;7.44;100.00;98835.25;4952560;28;20034;-79
2023/03/25 05:04:05;;;;;;;11.02;1.60;;;;;;;7.39;100.00;98840.19;4937211;28;20118;-79
2023/03/25 05:06:37;;;;;;;;;;;;;;;7.31;100.00;98843.63;4951528;29;20054;-80
2023/03/25 05:09:13;;;;;;;9.63;0.80;;;;;;;7.29;100.00;98845.59;4951645;28;19921;-80
2023/03/25 05:11:43;;;;;;;;;;;;;;;7.20;100.00;98856.09;4943372;28;20495;-80
2023/03/25 05:14:15;;;;;;;7.25;0.85;;;;;;;7.20;100.00;98858.72;4953183;28;19961;-80
2023/03/25 05:16:43;;;;;;;9.20;1.50;;;;;;;7.19;100.00;98864.13;4962426;28;20050;-80
2023/03/25 05:19:11;;;;;;;6.07;1.13;;;;;;;7.23;100.00;98875.16;4952842;28;20513;-79
2023/03/25 05:21:41;;;;;;;6.70;1.17;;;;;;;7.25;100.00;98874.00;4970408;28;20395;-80
2023/03/25 05:24:12;;;;;;;12.77;1.05;;;;;;;7.28;100.00;98873.69;4952148;28;20129;-80
2023/03/25 05:26:41;;;;;;;6.85;0.90;;;;;;;7.29;100.00;98880.56;4954846;28;20431;-80
2023/03/25 05:29:15;;;;;;;9.38;1.15;;;;;;;7.32;100.00;98895.22;4953367;28;20035;-79
2023/03/25 05:31:45;;;;;;;9.18;0.90;;;;;;;7.33;100.00;98891.59;4963111;28;20072;-79
2023/03/25 05:34:15;;;;;;;6.63;1.25;;;;;;;7.31;100.00;98891.75;4974322;28;20023;-80
2023/03/25 05:36:46;;;;;;;12.02;1.27;;;;;;;7.34;100.00;98892.41;4940982;28;20087;-79
2023/03/25 05:39:16;;;;;;;11.00;1.55;;;;;;;7.31;100.00;98901.47;4975537;28;20062;-79
2023/03/25 05:41:46;;;;;;;8.77;1.10;;;;;;;7.31;100.00;98909.34;4958516;28;20039;-80
2023/03/25 05:44:17;;;;;;;10.07;1.40;;;;;;;7.29;100.00;98908.66;4947770;28;20113;-80
2023/03/25 05:46:47;;;;;;;12.20;1.98;;;;;;;7.26;100.00;98911.63;4971869;28;20031;-80
2023/03/25 05:49:17;;;;;;;16.70;6.10;;;;;;;7.26;100.00;98922.94;4941189;28;20547;-80
2023/03/25 05:51:48;;;;;;;11.80;1.33;;;;;;;7.25;100.00;98923.09;4969841;28;20122;-80
2023/03/25 05:54:18;;;;;;;14.25;1.90;;;;;;;7.23;100.00;98940.84;4974591;28;20542;-80
2023/03/25 05:56:48;;;;;;;14.75;1.60;;;;;;;7.19;100.00;98946.44;4952845;28;20097;-80
2023/03/25 05:59:19;;;;;;;9.80;1.48;;;;;;;7.19;100.00;98950.84;4953559;28;20058;-79
2023/03/25 06:01:49;;;;;;;13.07;1.38;;;;;;;7.17;100.00;98956.28;4964578;28;20034;-80
2023/03/25 06:04:20;;;;;;;9.68;1.63;;;;;;;7.19;100.00;98956.09;4936231;28;20098;-80
2023/03/25 06:06:49;;;;;;;7.18;1.10;;;;;;;7.21;100.00;98954.16;4961347;28;20045;-80
2023/03/25 06:09:17;;;;;;;14.48;1.67;;;;;;;7.18;100.00;98954.47;4953179;28;20027;-80
2023/03/25 06:11:52;;;;;;;9.35;1.05;;;;;;;7.20;100.00;98955.94;4969484;28;20038;-80
2023/03/25 06:14:24;;;;;;;11.15;1.15;;;;;;;7.16;100.00;98965.16;4939819;28;20039;-79
2023/03/25 06:16:55;;;;;;;9.55;1.90;;;;;;;7.15;100.00;98966.09;4943645;28;20099;-80
2023/03/25 06:19:25;;;;;;;10.40;1.25;;;;;;;7.13;100.00;98972.50;4971141;28;20435;-80
2023/03/25 06:21:55;;;;;;;10.80;1.13;;;;;;;7.14;100.00;98977.59;4961032;28;20045;-79
2023/03/25 06:24:24;;;;;;;15.07;3.28;;;;;;;7.13;100.00;98983.03;4935045;28;20058;-79
2023/03/25 06:26:52;;;;;;;15.85;1.38;;;;;;;7.09;100.00;98986.97;4960796;28;20062;-80
2023/03/25 06:29:22;;;;;;;10.15;1.75;;;;;;;7.07;100.00;98992.38;4954429;28;20130;-80
2023/03/25 06:31:52;;;;;;;11.00;1.20;;;;;;;7.08;100.00;98999.25;4968235;28;20039;-80
2023/03/25 06:34:22;;;;;;;11.70;0.90;;;;;;;7.11;100.00;98996.31;4954619;29;20087;-80
2023/03/25 06:36:52;;;;;;;8.23;1.38;;;;;;;7.11;100.00;99001.56;4947752;28;20046;-80
2023/03/25 06:39:22;;;;;;;7.45;1.70;;;;;;;7.09;100.00;98997.47;4964750;28;20047;-80
2023/03/25 06:41:51;;;;;;;9.38;2.67;;;;;;;7.07;100.00;98997.63;4960352;28;20046;-80
2023/03/25 06:44:29;;;;;;;10.65;1.15;;;;;;;7.03;100.00;99005.00;4940464;28;20039;-80
2023/03/25 06:47:17;;;;;;;15.07;1.65;;;;;;;7.04;100.00;99008.44;4942044;29;20063;-80
2023/03/25 06:49:49;;;;;;;7.00;1.23;;;;;;;7.02;100.00;99005.97;4966957;28;20055;-80
2023/03/25 06:52:19;;;;;;;8.27;1.20;;;;;;;7.06;100.00;99012.56;4924707;29;20032;-80
2023/03/25 06:54:49;;;;;;;14.60;1.60;;;;;;;7.03;100.00;99010.25;4938930;28;20122;-80
2023/03/25 06:57:18;;;;;;;15.02;1.27;;;;;;;7.04;100.00;99018.97;4971309;28;20099;-80
2023/03/25 06:59:47;;;;;;;7.63;1.20;;;;;;;7.04;100.00;99022.38;4974016;28;20043;-80
2023/03/25 07:02:14;;;;;;;8.88;1.45;;;;;;;7.08;100.00;99030.78;4924191;28;20062;-80
2023/03/25 07:04:42;;;;;;;11.98;1.40;;;;;;;7.07;100.00;99042.28;4966845;28;20054;-80
2023/03/25 07:07:10;;;;;;;10.25;1.40;;;;;;;7.11;100.00;99037.53;4933512;28;20383;-80
2023/03/25 07:09:38;;;;;;;8.00;1.60;;;;;;;7.11;100.00;99042.78;4969506;28;20035;-80
2023/03/25 07:12:06;;;;;;;15.07;1.80;;;;;;;7.16;100.00;99040.53;4946917;28;20102;-80
2023/03/25 07:14:34;;;;;;;13.43;1.95;;;;;;;7.18;100.00;99044.63;4953549;28;20046;-80
2023/03/25 07:17:02;;;;;;;8.10;1.48;;;;;;;7.29;100.00;99043.53;4952788;28;20034;-80
2023/03/25 07:19:29;;;;;;;16.27;2.00;;;;;;;7.35;100.00;99043.88;4953034;28;20038;-80
2023/03/25 07:21:57;;;;;;;9.77;1.45;;;;;;;7.42;100.00;99045.72;4953335;28;20110;-80
2023/03/25 07:24:25;;;;;;;11.13;1.60;;;;;;;7.47;100.00;99045.22;4953243;29;20035;-80
2023/03/25 07:26:53;;;;;;;11.27;1.98;;;;;;;7.59;100.00;99042.31;4947091;28;20034;-80
2023/03/25 07:29:25;;;;;;;16.80;1.70;;;;;;;7.66;100.00;99045.97;4938230;28;20353;-80
2023/03/25 07:31:55;;;;;;;15.90;1.33;;;;;;;7.73;100.00;99046.13;4951219;28;20086;-80
2023/03/25 07:34:25;;;;;;;8.68;1.08;;;;;;;7.74;100.00;99048.59;4972616;28;20026;-80
2023/03/25 07:36:54;;;;;;;6.15;1.00;;;;;;;7.75;100.00;99066.06;4954436;28;20046;-80
2023/03/25 07:39:25;;;;;;;5.82;0.90;;;;;;;7.77;100.00;99060.63;4952484;28;20042;-80
2023/03/25 07:41:54;;;;;;;10.40;1.40;;;;;;;7.72;100.00;99063.75;4970757;28;20506;-80
2023/03/25 07:44:32;;;;;;;9.60;1.10;;;;;;;7.68;100.00;99065.03;4935740;28;20369;-80
2023/03/25 07:47:00;;;;;;;8.27;1.05;;;;;;;7.67;100.00;99082.63;4926505;28;20109;-80
2023/03/25 07:49:30;;;;;;;11.57;1.20;;;;;;;7.72;100.00;99083.94;4955514;28;20057;-80
2023/03/25 07:52:00;;;;;;;14.13;1.48;;;;;;;7.79;100.00;99077.88;4936818;29;20676;-80
2023/03/25 07:54:29;;;;;;;9.20;1.08;;;;;;;7.97;100.00;99087.47;4950393;28;20035;-80
2023/03/25 07:56:57;;;;;;;7.57;0.93;;;;;;;8.17;100.00;99084.56;4935839;29;20063;-80
2023/03/25 07:59:27;;;;;;;12.70;1.13;;;;;;;8.34;100.00;99084.56;4873108;28;20070;-80
2023/03/25 08:01:56;;;;;;;9.75;1.20;;;;;;;8.41;100.00;99091.66;4965704;28;20058;-80
2023/03/25 08:04:24;;;;;;;6.78;1.08;;;;;;;8.50;100.00;99092.50;4946387;28;20074;-79
2023/03/25 08:06:51;;;;;;;12.45;1.15;;;;;;;8.63;100.00;99092.00;4971656;28;20045;-80
2023/03/25 08:09:19;;;;;;;9.82;0.88;;;;;;;8.69;100.00;99098.44;4968250;28;20113;-81
2023/03/25 08:11:47;;;;;;;10.50;1.25;;;;;;;8.77;100.00;99101.06;4954710;28;20062;-80
2023/03/25 08:14:15;;;;;;;8.10;1.10;;;;;;;8.73;100.00;99105.00;4968328;28;20109;-80
2023/03/25 08:16:43;;;;;;;8.00;1.23;;;;;;;8.79;100.00;99108.81;4952373;29;20046;-80
2023/03/25 08:19:10;;;;;;;10.15;1.15;;;;;;;8.77;100.00;99116.88;4967438;28;20054;-80
2023/03/25 08:21:38;;;;;;;9.82;1.30;;;;;;;8.83;100.00;99119.81;4971005;28;20048;-80
2023/03/25 08:24:06;;;;;;;6.03;0.77;;;;;;;8.81;100.00;99115.56;4970327;28;20487;-80
2023/03/25 08:26:36;;;;;;;5.20;1.10;;;;;;;8.86;100.00;99114.22;4943183;28;20035;-80
2023/03/25 08:29:04;;;;;;;4.93;0.73;;;;;;;8.88;100.00;99120.16;4965721;28;20035;-80
2023/03/25 08:31:33;;;;;;;7.38;1.20;;;;;;;8.88;100.00;99118.34;4967945;28;20053;-80
2023/03/25 08:34:02;;;;;;;7.70;2.40;;;;;;;8.93;100.00;99129.19;4953297;28;20043;-80
2023/03/25 08:36:30;;;;;;;14.00;1.75;;;;;;;8.98;100.00;99127.88;4953318;28;20539;-80
2023/03/25 08:38:58;;;;;;;9.10;1.05;;;;;;;9.01;100.00;99128.38;4965531;28;20506;-80
2023/03/25 08:41:25;;;;;;;6.28;0.80;;;;;;;9.07;100.00;99129.53;4939052;28;20030;-80
2023/03/25 08:43:53;;;;;;;7.05;1.02;;;;;;;9.10;100.00;99134.47;4968181;28;20035;-80
2023/03/25 08:46:23;;;;;;;8.13;1.00;;;;;;;9.17;100.00;99134.63;4963160;28;20037;-80
2023/03/25 08:48:52;;;;;;;11.90;1.13;;;;;;;9.23;100.00;99141.84;4952993;28;20399;-80
2023/03/25 08:51:20;;;;;;;8.88;0.90;;;;;;;9.22;100.00;99144.66;4970718;28;20037;-80
2023/03/25 08:53:48;;;;;;;9.43;1.40;;;;;;;9.28;100.00;99138.72;4937909;28;20057;-80
2023/03/25 08:56:16;;;;;;;6.00;0.75;;;;;;;9.35;100.00;99137.03;4953536;28;20395;-80
2023/03/25 08:58:44;;;;;;;12.10;1.27;;;;;;;9.45;100.00;99143.94;4970781;28;20051;-80
2023/03/25 09:01:12;;;;;;;6.45;1.13;;;;;;;9.48;100.00;99133.88;4968507;28;20138;-80
2023/03/25 09:03:41;;;;;;;8.50;1.10;;;;;;;9.52;100.00;99143.09;4970209;28;20070;-79
2023/03/25 09:06:09;;;;;;;8.93;1.15;;;;;;;9.56;100.00;99135.66;4935435;28;20394;-80
2023/03/25 09:08:37;;;;;;;5.93;0.88;;;;;;;9.61;100.00;99132.50;4954030;28;20097;-80
2023/03/25 09:11:05;;;;;;;9.95;1.48;;;;;;;9.70;100.00;99139.41;4970529;28;20106;-79
2023/03/25 09:13:35;;;;;;;16.85;1.88;;;;;;;9.78;100.00;99141.19;4971495;28;20037;-80
2023/03/25 09:16:05;;;;;;;7.30;0.98;;;;;;;9.74;100.00;99138.06;4953776;28;20037;-79
2023/03/25 09:18:35;;;;;;;11.30;1.83;;;;;;;9.70;100.00;99136.75;4938938;28;20055;-79
2023/03/25 09:21:04;;;;;;;9.20;1.90;;;;;;;9.66;100.00;99146.84;4936544;28;20034;-79
2023/03/25 09:23:33;;;;;;;14.02;1.15;;;;;;;9.65;100.00;99157.56;4950988;28;20051;-79
2023/03/25 09:26:04;;;;;;;8.25;0.93;;;;;;;9.61;100.00;99153.63;4953201;28;20038;-78
2023/03/25 09:28:34;;;;;;;7.40;0.75;;;;;;;9.53;100.00;99152.66;4945363;28;20499;-79
2023/03/25 09:31:04;;;;;;;12.02;1.08;;;;;;;9.53;100.00;99160.56;4969866;28;20042;-78
2023/03/25 09:33:35;;;;;;;8.82;0.93;;;;;;;9.61;100.00;99157.09;4936609;28;20035;-79
2023/03/25 09:36:06;;;;;;;3.70;0.93;;;;;;;9.66;100.00;99160.03;4970688;28;20094;-78
2023/03/25 09:38:36;;;;;;;5.82;0.95;;;;;;;9.76;100.00;99162.47;4970129;28;20429;-78
2023/03/25 09:41:30;;;;;;;5.22;0.80;;;;;;;9.79;100.00;99171.88;4967933;28;20547;-78
2023/03/25 09:44:09;;;;;;;5.70;0.75;;;;;;;9.83;100.00;99167.06;4945389;28;20034;-79
2023/03/25 09:46:39;;;;;;;4.47;0.70;;;;;;;9.82;100.00;99173.34;4936742;28;20547;-79
2023/03/25 09:49:20;;;;;;;7.00;0.88;;;;;;;9.76;100.00;99159.03;4891788;28;20034;-79
2023/03/25 09:51:52;;;;;;;6.70;0.90;;;;;;;9.65;100.00;99170.78;4959568;28;20039;-79
2023/03/25 09:54:28;;;;;;;5.30;0.70;;;;;;;9.70;100.00;99175.53;4952127;28;20138;-79
2023/03/25 09:57:05;;;;;;;5.35;0.75;;;;;;;9.75;100.00;99183.75;4954939;28;20031;-79
2023/03/25 09:59:51;;;;;;;4.93;0.93;;;;;;;9.92;100.00;99177.41;4959428;28;20047;-79
2023/03/25 10:02:51;;;;;;;4.65;0.77;;;;;;;9.92;100.00;99177.41;4962173;28;20096;-79
2023/03/25 10:05:58;;;;;;;4.68;0.50;;;;;;;9.82;100.00;99178.63;4955722;28;20027;-79
2023/03/25 10:08:27;;;;;;;;;;;;;;;9.64;100.00;99177.84;4953147;28;20030;-78
2023/03/25 10:11:05;;;;;;;4.97;0.93;;;;;;;9.72;100.00;99190.19;4954619;28;19986;-79
2023/03/25 10:13:57;;;;;;;6.65;0.65;;;;;;;9.72;100.00;99184.91;4948387;28;20058;-79
2023/03/25 10:16:36;;;;;;;7.05;1.13;;;;;;;9.71;100.00;99185.09;4970393;28;20034;-79
2023/03/25 10:19:40;;;;;;;6.57;1.20;;;;;;;9.74;100.00;99188.22;4925232;28;20075;-79
2023/03/25 10:22:32;;;;;;;10.45;1.38;;;;;;;9.91;100.00;99190.78;4972479;28;20391;-79
2023/03/25 10:25:04;;;;;;;10.32;0.90;;;;;;;10.03;100.00;99193.88;4962791;28;20085;-79
2023/03/25 10:27:44;;;;;;;5.72;1.20;;;;;;;10.15;100.00;99191.66;4945121;28;20445;-79
2023/03/25 10:30:21;;;;;;;6.65;1.13;;;;;;;10.22;100.00;99187.34;4950332;28;20042;-79
2023/03/25 10:32:58;;;;;;;5.90;0.73;;;;;;;10.34;100.00;99186.94;4932920;28;20035;-79
2023/03/25 10:35:39;;;;;;;7.85;0.85;;;;;;;10.46;100.00;99182.97;4948969;28;20050;-78
2023/03/25 10:38:25;;;;;;;5.93;1.38;;;;;;;10.43;100.00;99168.22;4968847;28;20042;-79
2023/03/25 10:41:14;;;;;;;;;;;;;;;10.28;100.00;99188.47;4949838;28;20498;-79
2023/03/25 10:43:43;;;;;;;4.85;0.80;;;;;;;10.56;100.00;99171.34;4960942;28;20003;-79
2023/03/25 10:46:37;;;;;;;3.70;0.65;;;;;;;10.86;100.00;99192.59;4919877;28;20509;-78
2023/03/25 10:49:11;;;;;;;5.50;0.70;;;;;;;11.02;100.00;99187.16;4960573;28;20027;-79
2023/03/25 10:51:41;;;;;;;5.53;0.85;;;;;;;11.04;100.00;99187.81;4959744;28;20039;-79
2023/03/25 10:54:13;;;;;;;5.55;1.02;;;;;;;10.94;100.00;99194.34;4946127;28;20046;-79
2023/03/25 10:56:48;;;;;;;5.05;0.80;;;;;;;10.85;100.00;99188.28;4969993;28;20102;-79
2023/03/25 10:59:42;;;;;;;5.35;1.00;;;;;;;10.85;100.00;99183.00;4947958;29;20051;-79
2023/03/25 11:02:26;;;;;;;5.32;0.85;;;;;;;10.78;100.00;99189.00;4948612;29;20035;-79
2023/03/25 11:05:03;;;;;;;7.43;1.00;;;;;;;10.66;100.00;99185.13;4949853;29;20405;-79
2023/03/25 11:07:37;;;;;;;4.90;0.70;;;;;;;10.63;100.00;99190.75;4919904;29;20548;-79
2023/03/25 11:10:31;;;;;;;6.15;0.95;;;;;;;10.64;100.00;99185.31;4953904;29;20035;-78
2023/03/25 11:13:03;;;;;;;5.70;0.65;;;;;;;10.84;100.00;99184.00;4947909;29;20055;-79
2023/03/25 11:15:38;;;;;;;5.70;1.02;;;;;;;11.12;100.00;99192.19;4954176;29;20039;-79
2023/03/25 11:18:18;;;;;;;6.63;0.82;;;;;;;11.38;100.00;99184.84;4938211;29;20377;-78
2023/03/25 11:20:51;;;;;;;7.53;1.05;;;;;;;11.47;100.00;99185.59;4940189;29;20066;-78
2023/03/25 11:23:24;;;;;;;7.65;1.25;;;;;;;11.56;100.00;99181.88;4927360;29;20118;-79
2023/03/25 11:25:56;;;;;;;7.50;1.20;;;;;;;11.72;100.00;99185.34;4905100;29;20043;-79
2023/03/25 11:28:56;;;;;;;4.07;0.85;;;;;;;11.68;100.00;99192.81;4924957;29;20429;-78
2023/03/25 11:31:26;;;;;;;4.70;0.77;;;;;;;11.54;100.00;99187.34;4938558;28;20053;-78
2023/03/25 11:34:25;;;;;;;4.03;0.50;;;;;;;11.37;100.00;99201.75;4919977;29;20420;-78
2023/03/25 11:37:08;;;;;;;2.92;0.43;;;;;;;11.29;100.00;99195.50;4948282;28;20502;-79
2023/03/25 11:39:40;;;;;;;5.95;0.80;;;;;;;11.33;100.00;99195.97;4924767;29;20078;-79
2023/03/25 11:42:34;;;;;;;4.25;0.77;;;;;;;11.46;100.00;99182.13;4944691;29;20118;-78
2023/03/25 11:45:04;;;;;;;3.92;0.75;;;;;;;11.73;100.00;99189.63;4925561;29;20176;-78
2023/03/25 11:47:36;;;;;;;5.35;1.20;;;;;;;11.93;100.00;99194.38;4933397;28;20045;-79
2023/03/25 11:50:05;;;;;;;3.83;0.75;;;;;;;12.05;100.00;99177.00;4936562;29;20392;-79
2023/03/25 11:52:43;;;;;;;6.78;0.70;;;;;;;12.03;100.00;99185.13;4936563;29;20514;-79
2023/03/25 11:55:45;;;;;;;3.95;0.63;;;;;;;12.16;100.00;99181.00;4946457;28;20050;-79
2023/03/25 11:58:26;;;;;;;4.00;0.60;;;;;;;12.30;100.00;99178.50;4930448;29;20039;-79
2023/03/25 12:01:05;;;;;;;5.00;0.43;;;;;;;12.44;100.00;99184.78;4948425;29;20046;-79
2023/03/25 12:03:35;;;;;;;3.58;0.50;;;;;;;12.52;100.00;99180.19;4936772;29;20047;-79